Terminal Aerodrome Forecast
Issued by NWS St Louis, MO

Home | Current Version | Previous Version | Graphics & Text | Print | Product List | Glossary On
Versions: 1 2 3 4 5 6 7 8 9 10 11 12 13 14 15 16 17 18 19 20 21 22 23 24 25 26 27 28 29 30 31 32 33
000
FTUS43 KLSX 220520
TAFSTL
TAF
KSTL 220520Z 2206/2312 17012G18KT P6SM VCSH SCT009 OVC025
     FM220800 17012G18KT 5SM -RA VCTS OVC025CB
      TEMPO 2208/2211 2SM SHRA BR OVC015
     FM221200 18012KT P6SM BKN090
     FM221400 20015G25KT P6SM SCT250
     FM222000 23015G25KT P6SM BKN035=

USA.gov is the U.S. government's official web portal to all federal, state and local government web resources and services.